sensor_id;sensor_type;location;lat;lon;timestamp;temperature;humidity
9544;DHT22;30418;51.45933468;7.33152330;2023-10-08T00:01:10;21.40;60.80
9544;DHT22;30418;51.45933468;7.33152330;2023-10-08T00:03:42;21.40;60.70
9544;DHT22;30418;51.45933468;7.33152330;2023-10-08T00:06:16;21.40;60.80
9544;DHT22;30418;51.45933468;7.33152330;2023-10-08T00:08:46;21.40;60.80
9544;DHT22;30418;51.45933468;7.33152330;2023-10-08T00:11:17;21.40;60.80
9544;DHT22;30418;51.45933468;7.33152330;2023-10-08T00:13:47;21.40;60.90
9544;DHT22;30418;51.45933468;7.33152330;2023-10-08T00:16:17;21.40;60.80
9544;DHT22;30418;51.45933468;7.33152330;2023-10-08T00:18:49;21.40;60.90
9544;DHT22;30418;51.45933468;7.33152330;2023-10-08T00:21:20;21.40;60.90
9544;DHT22;30418;51.45933468;7.33152330;2023-10-08T00:23:54;21.40;60.90
9544;DHT22;30418;51.45933468;7.33152330;2023-10-08T00:26:28;21.40;60.80
9544;DHT22;30418;51.45933468;7.33152330;2023-10-08T00:28:59;21.40;60.80
9544;DHT22;30418;51.45933468;7.33152330;2023-10-08T00:31:34;21.40;60.80
9544;DHT22;30418;51.45933468;7.33152330;2023-10-08T00:34:08;21.30;60.80
9544;DHT22;30418;51.45933468;7.33152330;2023-10-08T00:36:38;21.30;60.80
9544;DHT22;30418;51.45933468;7.33152330;2023-10-08T00:39:08;21.30;60.80
9544;DHT22;30418;51.45933468;7.33152330;2023-10-08T00:41:43;21.30;60.80
9544;DHT22;30418;51.45933468;7.33152330;2023-10-08T00:44:13;21.30;60.80
9544;DHT22;30418;51.45933468;7.33152330;2023-10-08T00:46:44;21.30;60.90
9544;DHT22;30418;51.45933468;7.33152330;2023-10-08T00:49:17;21.30;60.90
9544;DHT22;30418;51.45933468;7.33152330;2023-10-08T00:51:55;21.30;60.90
9544;DHT22;30418;51.45933468;7.33152330;2023-10-08T00:54:31;21.30;61.00
9544;DHT22;30418;51.45933468;7.33152330;2023-10-08T00:57:03;21.30;61.00
9544;DHT22;30418;51.45933468;7.33152330;2023-10-08T00:59:33;21.30;61.10
9544;DHT22;30418;51.45933468;7.33152330;2023-10-08T01:02:11;21.20;60.90
9544;DHT22;30418;51.45933468;7.33152330;2023-10-08T01:04:47;21.30;61.00
9544;DHT22;30418;51.45933468;7.33152330;2023-10-08T01:07:17;21.20;60.80
9544;DHT22;30418;51.45933468;7.33152330;2023-10-08T01:09:46;21.20;60.90
9544;DHT22;30418;51.45933468;7.33152330;2023-10-08T01:12:21;21.20;60.90
9544;DHT22;30418;51.45933468;7.33152330;2023-10-08T01:14:51;21.20;60.90
9544;DHT22;30418;51.45933468;7.33152330;2023-10-08T01:17:22;21.20;60.90
9544;DHT22;30418;51.45933468;7.33152330;2023-10-08T01:19:54;21.20;61.10
9544;DHT22;30418;51.45933468;7.33152330;2023-10-08T01:22:37;21.20;61.00
9544;DHT22;30418;51.45933468;7.33152330;2023-10-08T01:25:07;21.20;61.00
9544;DHT22;30418;51.45933468;7.33152330;2023-10-08T01:27:38;21.20;61.00
9544;DHT22;30418;51.45933468;7.33152330;2023-10-08T01:30:07;21.10;60.90
9544;DHT22;30418;51.45933468;7.33152330;2023-10-08T01:32:45;21.20;61.10
9544;DHT22;30418;51.45933468;7.33152330;2023-10-08T01:35:13;21.10;61.00
9544;DHT22;30418;51.45933468;7.33152330;2023-10-08T01:37:52;21.10;60.90
9544;DHT22;30418;51.45933468;7.33152330;2023-10-08T01:40:23;21.10;61.00
9544;DHT22;30418;51.45933468;7.33152330;2023-10-08T01:42:52;21.10;61.00
9544;DHT22;30418;51.45933468;7.33152330;2023-10-08T01:45:20;21.20;61.10
9544;DHT22;30418;51.45933468;7.33152330;2023-10-08T01:47:51;21.10;61.00
9544;DHT22;30418;51.45933468;7.33152330;2023-10-08T01:50:22;21.20;61.10
9544;DHT22;30418;51.45933468;7.33152330;2023-10-08T01:52:54;21.10;61.00
9544;DHT22;30418;51.45933468;7.33152330;2023-10-08T01:55:22;21.10;61.00
9544;DHT22;30418;51.45933468;7.33152330;2023-10-08T01:57:51;21.10;61.00
9544;DHT22;30418;51.45933468;7.33152330;2023-10-08T02:00:19;21.10;61.00
9544;DHT22;30418;51.45933468;7.33152330;2023-10-08T02:02:49;21.10;61.00
9544;DHT22;30418;51.45933468;7.33152330;2023-10-08T02:05:19;21.10;61.00
9544;DHT22;30418;51.45933468;7.33152330;2023-10-08T02:07:48;21.10;61.00
9544;DHT22;30418;51.45933468;7.33152330;2023-10-08T02:10:19;21.10;61.90
9544;DHT22;30418;51.45933468;7.33152330;2023-10-08T02:12:49;21.10;61.00
9544;DHT22;30418;51.45933468;7.33152330;2023-10-08T02:15:18;21.10;61.00
9544;DHT22;30418;51.45933468;7.33152330;2023-10-08T02:17:46;21.10;61.00
9544;DHT22;30418;51.45933468;7.33152330;2023-10-08T02:20:16;21.10;61.00
9544;DHT22;30418;51.45933468;7.33152330;2023-10-08T02:22:46;21.10;61.00
9544;DHT22;30418;51.45933468;7.33152330;2023-10-08T02:25:16;21.10;61.00
9544;DHT22;30418;51.45933468;7.33152330;2023-10-08T02:27:47;21.10;61.00
9544;DHT22;30418;51.45933468;7.33152330;2023-10-08T02:30:15;21.10;61.00
9544;DHT22;30418;51.45933468;7.33152330;2023-10-08T02:32:45;21.10;61.00
9544;DHT22;30418;51.45933468;7.33152330;2023-10-08T02:35:13;21.10;61.10
9544;DHT22;30418;51.45933468;7.33152330;2023-10-08T02:37:42;21.10;61.10
9544;DHT22;30418;51.45933468;7.33152330;2023-10-08T02:40:12;21.10;61.00
9544;DHT22;30418;51.45933468;7.33152330;2023-10-08T02:42:54;21.10;61.00
9544;DHT22;30418;51.45933468;7.33152330;2023-10-08T02:45:26;21.10;61.00
9544;DHT22;30418;51.45933468;7.33152330;2023-10-08T02:47:55;21.10;61.00
9544;DHT22;30418;51.45933468;7.33152330;2023-10-08T02:50:24;21.00;60.90
9544;DHT22;30418;51.45933468;7.33152330;2023-10-08T02:52:54;21.00;60.90
9544;DHT22;30418;51.45933468;7.33152330;2023-10-08T02:55:30;21.00;60.90
9544;DHT22;30418;51.45933468;7.33152330;2023-10-08T02:58:03;21.00;60.90
9544;DHT22;30418;51.45933468;7.33152330;2023-10-08T03:00:33;20.90;60.80
9544;DHT22;30418;51.45933468;7.33152330;2023-10-08T03:03:03;20.90;60.90
9544;DHT22;30418;51.45933468;7.33152330;2023-10-08T03:05:46;20.90;60.80
9544;DHT22;30418;51.45933468;7.33152330;2023-10-08T03:08:18;20.90;60.80
9544;DHT22;30418;51.45933468;7.33152330;2023-10-08T03:10:49;20.90;60.90
9544;DHT22;30418;51.45933468;7.33152330;2023-10-08T03:13:24;20.90;60.80
9544;DHT22;30418;51.45933468;7.33152330;2023-10-08T03:15:53;20.90;60.90
9544;DHT22;30418;51.45933468;7.33152330;2023-10-08T03:18:36;20.80;60.80
9544;DHT22;30418;51.45933468;7.33152330;2023-10-08T03:21:10;20.80;60.80
9544;DHT22;30418;51.45933468;7.33152330;2023-10-08T03:23:51;20.80;60.80
9544;DHT22;30418;51.45933468;7.33152330;2023-10-08T03:26:25;20.80;60.90
9544;DHT22;30418;51.45933468;7.33152330;2023-10-08T03:29:05;20.80;60.90
9544;DHT22;30418;51.45933468;7.33152330;2023-10-08T03:31:35;20.80;60.80
9544;DHT22;30418;51.45933468;7.33152330;2023-10-08T03:34:19;20.80;60.80
9544;DHT22;30418;51.45933468;7.33152330;2023-10-08T03:36:54;20.80;60.80
9544;DHT22;30418;51.45933468;7.33152330;2023-10-08T03:39:32;20.80;60.80
9544;DHT22;30418;51.45933468;7.33152330;2023-10-08T03:42:19;20.80;60.90
9544;DHT22;30418;51.45933468;7.33152330;2023-10-08T03:44:51;20.70;60.80
9544;DHT22;30418;51.45933468;7.33152330;2023-10-08T03:47:21;20.80;61.10
9544;DHT22;30418;51.45933468;7.33152330;2023-10-08T03:49:54;20.70;61.00
9544;DHT22;30418;51.45933468;7.33152330;2023-10-08T03:52:22;20.80;61.10
9544;DHT22;30418;51.45933468;7.33152330;2023-10-08T03:54:53;20.70;61.10
9544;DHT22;30418;51.45933468;7.33152330;2023-10-08T03:57:31;20.80;61.10
9544;DHT22;30418;51.45933468;7.33152330;2023-10-08T04:00:12;20.70;61.00
9544;DHT22;30418;51.45933468;7.33152330;2023-10-08T04:02:45;20.80;61.20
9544;DHT22;30418;51.45933468;7.33152330;2023-10-08T04:05:23;20.70;61.00
9544;DHT22;30418;51.45933468;7.33152330;2023-10-08T04:07:56;20.80;61.10
9544;DHT22;30418;51.45933468;7.33152330;2023-10-08T04:10:44;20.70;61.00
9544;DHT22;30418;51.45933468;7.33152330;2023-10-08T04:13:32;20.70;60.90
9544;DHT22;30418;51.45933468;7.33152330;2023-10-08T04:16:02;20.70;60.90
9544;DHT22;30418;51.45933468;7.33152330;2023-10-08T04:18:32;20.70;61.00
9544;DHT22;30418;51.45933468;7.33152330;2023-10-08T04:21:07;20.70;60.90
9544;DHT22;30418;51.45933468;7.33152330;2023-10-08T04:23:40;20.70;60.90
9544;DHT22;30418;51.45933468;7.33152330;2023-10-08T04:26:11;20.70;60.80
9544;DHT22;30418;51.45933468;7.33152330;2023-10-08T04:28:40;20.60;60.60
9544;DHT22;30418;51.45933468;7.33152330;2023-10-08T04:31:09;20.60;60.60
9544;DHT22;30418;51.45933468;7.33152330;2023-10-08T04:33:51;20.60;60.80
9544;DHT22;30418;51.45933468;7.33152330;2023-10-08T04:36:21;20.60;60.90
9544;DHT22;30418;51.45933468;7.33152330;2023-10-08T04:38:49;20.60;60.90
9544;DHT22;30418;51.45933468;7.33152330;2023-10-08T04:41:22;20.60;61.00
9544;DHT22;30418;51.45933468;7.33152330;2023-10-08T04:43:55;20.60;61.00
9544;DHT22;30418;51.45933468;7.33152330;2023-10-08T04:46:25;20.60;61.00
9544;DHT22;30418;51.45933468;7.33152330;2023-10-08T04:49:14;20.50;60.90
9544;DHT22;30418;51.45933468;7.33152330;2023-10-08T04:51:55;20.60;61.10
9544;DHT22;30418;51.45933468;7.33152330;2023-10-08T04:54:26;20.60;61.30
9544;DHT22;30418;51.45933468;7.33152330;2023-10-08T04:56:58;20.50;61.20
9544;DHT22;30418;51.45933468;7.33152330;2023-10-08T04:59:30;20.60;61.20
9544;DHT22;30418;51.45933468;7.33152330;2023-10-08T05:02:04;20.60;61.20
9544;DHT22;30418;51.45933468;7.33152330;2023-10-08T05:04:49;20.50;62.00
9544;DHT22;30418;51.45933468;7.33152330;2023-10-08T05:07:45;20.60;61.20
9544;DHT22;30418;51.45933468;7.33152330;2023-10-08T05:10:27;20.60;61.10
9544;DHT22;30418;51.45933468;7.33152330;2023-10-08T05:13:12;20.50;61.00
9544;DHT22;30418;51.45933468;7.33152330;2023-10-08T05:15:43;20.50;61.00
9544;DHT22;30418;51.45933468;7.33152330;2023-10-08T05:18:31;20.50;61.00
9544;DHT22;30418;51.45933468;7.33152330;2023-10-08T05:21:27;20.50;61.10
9544;DHT22;30418;51.45933468;7.33152330;2023-10-08T05:24:08;20.50;61.20
9544;DHT22;30418;51.45933468;7.33152330;2023-10-08T05:26:39;20.50;61.20
9544;DHT22;30418;51.45933468;7.33152330;2023-10-08T05:29:12;20.40;61.10
9544;DHT22;30418;51.45933468;7.33152330;2023-10-08T05:31:58;20.50;61.30
9544;DHT22;30418;51.45933468;7.33152330;2023-10-08T05:34:42;20.40;61.10
9544;DHT22;30418;51.45933468;7.33152330;2023-10-08T05:37:18;20.40;61.10
9544;DHT22;30418;51.45933468;7.33152330;2023-10-08T05:40:09;20.50;61.20
9544;DHT22;30418;51.45933468;7.33152330;2023-10-08T05:43:04;20.40;61.20
9544;DHT22;30418;51.45933468;7.33152330;2023-10-08T05:45:49;20.40;61.20
9544;DHT22;30418;51.45933468;7.33152330;2023-10-08T05:48:41;20.40;61.30
9544;DHT22;30418;51.45933468;7.33152330;2023-10-08T05:51:15;20.50;61.50
9544;DHT22;30418;51.45933468;7.33152330;2023-10-08T05:54:01;20.40;61.40
9544;DHT22;30418;51.45933468;7.33152330;2023-10-08T05:56:48;20.40;61.40
9544;DHT22;30418;51.45933468;7.33152330;2023-10-08T05:59:33;20.40;61.40
9544;DHT22;30418;51.45933468;7.33152330;2023-10-08T06:02:06;20.40;61.30
9544;DHT22;30418;51.45933468;7.33152330;2023-10-08T06:04:58;20.40;61.30
9544;DHT22;30418;51.45933468;7.33152330;2023-10-08T06:07:50;20.40;61.40
9544;DHT22;30418;51.45933468;7.33152330;2023-10-08T06:10:37;20.40;61.40
9544;DHT22;30418;51.45933468;7.33152330;2023-10-08T06:13:18;20.40;61.40
9544;DHT22;30418;51.45933468;7.33152330;2023-10-08T06:15:57;20.40;61.50
9544;DHT22;30418;51.45933468;7.33152330;2023-10-08T06:18:35;20.40;61.60
9544;DHT22;30418;51.45933468;7.33152330;2023-10-08T06:21:06;20.40;61.60
9544;DHT22;30418;51.45933468;7.33152330;2023-10-08T06:23:40;20.30;61.60
9544;DHT22;30418;51.45933468;7.33152330;2023-10-08T06:26:10;20.30;61.60
9544;DHT22;30418;51.45933468;7.33152330;2023-10-08T06:28:43;20.30;61.60
9544;DHT22;30418;51.45933468;7.33152330;2023-10-08T06:31:12;20.30;61.60
9544;DHT22;30418;51.45933468;7.33152330;2023-10-08T06:33:44;20.30;61.60
9544;DHT22;30418;51.45933468;7.33152330;2023-10-08T06:36:12;20.30;61.70
9544;DHT22;30418;51.45933468;7.33152330;2023-10-08T06:38:45;20.30;61.80
9544;DHT22;30418;51.45933468;7.33152330;2023-10-08T06:41:16;20.30;61.90
9544;DHT22;30418;51.45933468;7.33152330;2023-10-08T06:44:05;20.30;61.90
9544;DHT22;30418;51.45933468;7.33152330;2023-10-08T06:46:41;20.20;61.80
9544;DHT22;30418;51.45933468;7.33152330;2023-10-08T06:49:10;20.20;61.90
9544;DHT22;30418;51.45933468;7.33152330;2023-10-08T06:51:42;20.20;62.80
9544;DHT22;30418;51.45933468;7.33152330;2023-10-08T06:54:12;20.20;62.00
9544;DHT22;30418;51.45933468;7.33152330;2023-10-08T06:56:44;20.20;62.00
9544;DHT22;30418;51.45933468;7.33152330;2023-10-08T06:59:19;20.20;62.00
9544;DHT22;30418;51.45933468;7.33152330;2023-10-08T07:01:50;20.20;62.00
9544;DHT22;30418;51.45933468;7.33152330;2023-10-08T07:04:19;20.20;62.00
9544;DHT22;30418;51.45933468;7.33152330;2023-10-08T07:06:50;20.20;62.20
9544;DHT22;30418;51.45933468;7.33152330;2023-10-08T07:09:20;20.20;62.10
9544;DHT22;30418;51.45933468;7.33152330;2023-10-08T07:11:57;20.20;62.30
9544;DHT22;30418;51.45933468;7.33152330;2023-10-08T07:14:32;20.20;62.10
9544;DHT22;30418;51.45933468;7.33152330;2023-10-08T07:17:01;20.20;62.20
9544;DHT22;30418;51.45933468;7.33152330;2023-10-08T07:19:35;20.20;62.30
9544;DHT22;30418;51.45933468;7.33152330;2023-10-08T07:22:07;20.20;62.30
9544;DHT22;30418;51.45933468;7.33152330;2023-10-08T07:24:51;20.20;62.30
9544;DHT22;30418;51.45933468;7.33152330;2023-10-08T07:27:21;20.20;62.20
9544;DHT22;30418;51.45933468;7.33152330;2023-10-08T07:29:51;20.20;62.20
9544;DHT22;30418;51.45933468;7.33152330;2023-10-08T07:32:24;20.20;62.20
9544;DHT22;30418;51.45933468;7.33152330;2023-10-08T07:34:53;20.20;62.40
9544;DHT22;30418;51.45933468;7.33152330;2023-10-08T07:37:42;20.10;62.20
9544;DHT22;30418;51.45933468;7.33152330;2023-10-08T07:40:14;20.10;62.30
9544;DHT22;30418;51.45933468;7.33152330;2023-10-08T07:42:42;20.10;62.40
9544;DHT22;30418;51.45933468;7.33152330;2023-10-08T07:45:12;20.10;62.30
9544;DHT22;30418;51.45933468;7.33152330;2023-10-08T07:47:44;20.00;62.40
9544;DHT22;30418;51.45933468;7.33152330;2023-10-08T07:50:13;20.00;62.50
9544;DHT22;30418;51.45933468;7.33152330;2023-10-08T07:52:43;20.00;62.60
9544;DHT22;30418;51.45933468;7.33152330;2023-10-08T07:55:14;19.90;62.60
9544;DHT22;30418;51.45933468;7.33152330;2023-10-08T07:57:45;19.90;62.80
9544;DHT22;30418;51.45933468;7.33152330;2023-10-08T08:00:14;19.90;62.90
9544;DHT22;30418;51.45933468;7.33152330;2023-10-08T08:02:51;19.80;62.90
9544;DHT22;30418;51.45933468;7.33152330;2023-10-08T08:05:22;19.80;62.90
9544;DHT22;30418;51.45933468;7.33152330;2023-10-08T08:07:52;19.80;62.90
9544;DHT22;30418;51.45933468;7.33152330;2023-10-08T08:10:25;19.70;62.90
9544;DHT22;30418;51.45933468;7.33152330;2023-10-08T08:12:53;19.70;63.10
9544;DHT22;30418;51.45933468;7.33152330;2023-10-08T08:15:24;19.70;63.10
9544;DHT22;30418;51.45933468;7.33152330;2023-10-08T08:17:54;19.60;63.00
9544;DHT22;30418;51.45933468;7.33152330;2023-10-08T08:20:23;19.70;63.10
9544;DHT22;30418;51.45933468;7.33152330;2023-10-08T08:23:02;19.60;63.00
9544;DHT22;30418;51.45933468;7.33152330;2023-10-08T08:25:39;19.60;62.90
9544;DHT22;30418;51.45933468;7.33152330;2023-10-08T08:28:33;19.60;63.20
9544;DHT22;30418;51.45933468;7.33152330;2023-10-08T08:31:02;19.60;63.10
9544;DHT22;30418;51.45933468;7.33152330;2023-10-08T08:33:35;19.50;63.10
9544;DHT22;30418;51.45933468;7.33152330;2023-10-08T08:36:20;19.50;63.90
9544;DHT22;30418;51.45933468;7.33152330;2023-10-08T08:38:49;19.50;63.10
9544;DHT22;30418;51.45933468;7.33152330;2023-10-08T08:41:19;19.50;63.10
9544;DHT22;30418;51.45933468;7.33152330;2023-10-08T08:43:51;19.50;63.30
9544;DHT22;30418;51.45933468;7.33152330;2023-10-08T08:46:28;19.50;63.20
9544;DHT22;30418;51.45933468;7.33152330;2023-10-08T08:49:01;19.50;63.30
9544;DHT22;30418;51.45933468;7.33152330;2023-10-08T08:51:32;19.40;63.30
9544;DHT22;30418;51.45933468;7.33152330;2023-10-08T08:54:02;19.40;63.30
9544;DHT22;30418;51.45933468;7.33152330;2023-10-08T08:56:37;19.40;63.50
9544;DHT22;30418;51.45933468;7.33152330;2023-10-08T08:59:06;19.40;63.60
9544;DHT22;30418;51.45933468;7.33152330;2023-10-08T09:01:40;19.40;63.50
9544;DHT22;30418;51.45933468;7.33152330;2023-10-08T09:04:10;19.40;63.50
9544;DHT22;30418;51.45933468;7.33152330;2023-10-08T09:06:39;19.40;63.60
9544;DHT22;30418;51.45933468;7.33152330;2023-10-08T09:09:07;19.40;63.60
9544;DHT22;30418;51.45933468;7.33152330;2023-10-08T09:11:52;19.30;63.50
9544;DHT22;30418;51.45933468;7.33152330;2023-10-08T09:14:24;19.40;63.50
9544;DHT22;30418;51.45933468;7.33152330;2023-10-08T09:16:54;19.40;63.60
9544;DHT22;30418;51.45933468;7.33152330;2023-10-08T09:19:23;19.40;64.40
9544;DHT22;30418;51.45933468;7.33152330;2023-10-08T09:22:01;19.40;63.70
9544;DHT22;30418;51.45933468;7.33152330;2023-10-08T09:24:32;19.40;63.70
9544;DHT22;30418;51.45933468;7.33152330;2023-10-08T09:27:06;19.40;63.30
9544;DHT22;30418;51.45933468;7.33152330;2023-10-08T09:29:36;19.30;62.90
9544;DHT22;30418;51.45933468;7.33152330;2023-10-08T09:32:09;19.30;62.70
9544;DHT22;30418;51.45933468;7.33152330;2023-10-08T09:34:38;19.30;62.40
9544;DHT22;30418;51.45933468;7.33152330;2023-10-08T09:37:06;19.30;62.40
9544;DHT22;30418;51.45933468;7.33152330;2023-10-08T09:39:37;19.20;62.20
9544;DHT22;30418;51.45933468;7.33152330;2023-10-08T09:42:10;19.20;62.20
9544;DHT22;30418;51.45933468;7.33152330;2023-10-08T09:44:40;19.20;62.30
9544;DHT22;30418;51.45933468;7.33152330;2023-10-08T09:47:10;19.20;62.20
9544;DHT22;30418;51.45933468;7.33152330;2023-10-08T09:49:48;19.20;62.20
9544;DHT22;30418;51.45933468;7.33152330;2023-10-08T09:52:27;19.20;62.20
9544;DHT22;30418;51.45933468;7.33152330;2023-10-08T09:55:00;19.10;62.10
9544;DHT22;30418;51.45933468;7.33152330;2023-10-08T09:57:32;19.10;62.10
9544;DHT22;30418;51.45933468;7.33152330;2023-10-08T10:00:01;19.10;62.10
9544;DHT22;30418;51.45933468;7.33152330;2023-10-08T10:02:30;19.10;62.10
9544;DHT22;30418;51.45933468;7.33152330;2023-10-08T10:05:00;19.10;62.10
9544;DHT22;30418;51.45933468;7.33152330;2023-10-08T10:07:29;19.10;62.10
9544;DHT22;30418;51.45933468;7.33152330;2023-10-08T10:09:58;19.10;62.10
9544;DHT22;30418;51.45933468;7.33152330;2023-10-08T10:12:27;19.10;62.10
9544;DHT22;30418;51.45933468;7.33152330;2023-10-08T10:14:57;19.10;62.10
9544;DHT22;30418;51.45933468;7.33152330;2023-10-08T10:17:28;19.20;62.30
9544;DHT22;30418;51.45933468;7.33152330;2023-10-08T10:20:11;19.20;62.20
9544;DHT22;30418;51.45933468;7.33152330;2023-10-08T10:22:43;19.20;62.20
9544;DHT22;30418;51.45933468;7.33152330;2023-10-08T10:25:16;19.20;62.40
9544;DHT22;30418;51.45933468;7.33152330;2023-10-08T10:28:21;19.30;62.10
9544;DHT22;30418;51.45933468;7.33152330;2023-10-08T10:30:51;19.30;61.80
9544;DHT22;30418;51.45933468;7.33152330;2023-10-08T10:33:20;19.30;61.70
9544;DHT22;30418;51.45933468;7.33152330;2023-10-08T10:35:53;19.30;61.80
9544;DHT22;30418;51.45933468;7.33152330;2023-10-08T10:38:23;19.30;61.70
9544;DHT22;30418;51.45933468;7.33152330;2023-10-08T10:40:54;19.30;61.60
9544;DHT22;30418;51.45933468;7.33152330;2023-10-08T10:43:25;19.30;61.50
9544;DHT22;30418;51.45933468;7.33152330;2023-10-08T10:46:04;19.40;61.60
9544;DHT22;30418;51.45933468;7.33152330;2023-10-08T10:48:51;19.40;61.50
9544;DHT22;30418;51.45933468;7.33152330;2023-10-08T10:51:33;19.40;61.60
9544;DHT22;30418;51.45933468;7.33152330;2023-10-08T10:54:02;19.40;61.60
9544;DHT22;30418;51.45933468;7.33152330;2023-10-08T10:56:35;19.40;61.40
9544;DHT22;30418;51.45933468;7.33152330;2023-10-08T10:59:10;19.40;61.40
9544;DHT22;30418;51.45933468;7.33152330;2023-10-08T11:01:48;19.40;61.40
9544;DHT22;30418;51.45933468;7.33152330;2023-10-08T11:04:19;19.40;61.20
9544;DHT22;30418;51.45933468;7.33152330;2023-10-08T11:06:56;19.40;61.20
9544;DHT22;30418;51.45933468;7.33152330;2023-10-08T11:09:28;19.40;61.30
9544;DHT22;30418;51.45933468;7.33152330;2023-10-08T11:12:06;19.40;61.20
9544;DHT22;30418;51.45933468;7.33152330;2023-10-08T11:14:39;19.40;61.30
9544;DHT22;30418;51.45933468;7.33152330;2023-10-08T11:17:16;19.50;61.50
9544;DHT22;30418;51.45933468;7.33152330;2023-10-08T11:19:45;19.50;61.40
9544;DHT22;30418;51.45933468;7.33152330;2023-10-08T11:22:14;19.50;61.40
9544;DHT22;30418;51.45933468;7.33152330;2023-10-08T11:24:45;19.50;61.30
9544;DHT22;30418;51.45933468;7.33152330;2023-10-08T11:27:17;19.50;61.20
9544;DHT22;30418;51.45933468;7.33152330;2023-10-08T11:29:56;19.60;61.40
9544;DHT22;30418;51.45933468;7.33152330;2023-10-08T11:32:29;19.60;61.40
9544;DHT22;30418;51.45933468;7.33152330;2023-10-08T11:35:00;19.60;61.40
9544;DHT22;30418;51.45933468;7.33152330;2023-10-08T11:37:45;19.60;61.40
9544;DHT22;30418;51.45933468;7.33152330;2023-10-08T11:40:27;19.60;61.50
9544;DHT22;30418;51.45933468;7.33152330;2023-10-08T11:42:57;19.70;61.60
9544;DHT22;30418;51.45933468;7.33152330;2023-10-08T11:45:26;19.70;61.40
9544;DHT22;30418;51.45933468;7.33152330;2023-10-08T11:47:58;19.70;61.20
9544;DHT22;30418;51.45933468;7.33152330;2023-10-08T11:50:31;19.70;61.00
9544;DHT22;30418;51.45933468;7.33152330;2023-10-08T11:53:00;19.70;60.90
9544;DHT22;30418;51.45933468;7.33152330;2023-10-08T11:55:31;19.80;61.00
9544;DHT22;30418;51.45933468;7.33152330;2023-10-08T11:58:04;19.70;60.90
9544;DHT22;30418;51.45933468;7.33152330;2023-10-08T12:00:38;19.70;61.00
9544;DHT22;30418;51.45933468;7.33152330;2023-10-08T12:03:15;19.80;61.20
9544;DHT22;30418;51.45933468;7.33152330;2023-10-08T12:05:47;19.70;61.00
9544;DHT22;30418;51.45933468;7.33152330;2023-10-08T12:08:19;19.70;61.10
9544;DHT22;30418;51.45933468;7.33152330;2023-10-08T12:10:49;19.80;61.20
9544;DHT22;30418;51.45933468;7.33152330;2023-10-08T12:13:22;19.80;61.30
9544;DHT22;30418;51.45933468;7.33152330;2023-10-08T12:15:52;19.80;61.30
9544;DHT22;30418;51.45933468;7.33152330;2023-10-08T12:18:34;19.80;61.20
9544;DHT22;30418;51.45933468;7.33152330;2023-10-08T12:21:07;19.80;61.10
9544;DHT22;30418;51.45933468;7.33152330;2023-10-08T12:23:38;19.80;61.00
9544;DHT22;30418;51.45933468;7.33152330;2023-10-08T12:26:08;19.80;61.10
9544;DHT22;30418;51.45933468;7.33152330;2023-10-08T12:28:36;19.80;61.00
9544;DHT22;30418;51.45933468;7.33152330;2023-10-08T12:31:05;19.80;61.10
9544;DHT22;30418;51.45933468;7.33152330;2023-10-08T12:33:35;19.80;61.00
9544;DHT22;30418;51.45933468;7.33152330;2023-10-08T12:36:05;19.80;60.90
9544;DHT22;30418;51.45933468;7.33152330;2023-10-08T12:38:40;19.80;60.90
9544;DHT22;30418;51.45933468;7.33152330;2023-10-08T12:41:09;19.80;60.90
9544;DHT22;30418;51.45933468;7.33152330;2023-10-08T12:43:42;19.80;61.00
9544;DHT22;30418;51.45933468;7.33152330;2023-10-08T12:46:13;19.80;61.00
9544;DHT22;30418;51.45933468;7.33152330;2023-10-08T12:48:53;19.80;61.00
9544;DHT22;30418;51.45933468;7.33152330;2023-10-08T12:51:24;19.90;61.20
9544;DHT22;30418;51.45933468;7.33152330;2023-10-08T12:53:53;19.90;61.10
9544;DHT22;30418;51.45933468;7.33152330;2023-10-08T12:56:32;19.80;61.00
9544;DHT22;30418;51.45933468;7.33152330;2023-10-08T12:59:03;19.90;61.10
9544;DHT22;30418;51.45933468;7.33152330;2023-10-08T13:01:33;19.90;61.10
9544;DHT22;30418;51.45933468;7.33152330;2023-10-08T13:04:05;19.90;61.30
9544;DHT22;30418;51.45933468;7.33152330;2023-10-08T13:06:42;19.90;61.20
9544;DHT22;30418;51.45933468;7.33152330;2023-10-08T13:09:13;19.90;61.30
9544;DHT22;30418;51.45933468;7.33152330;2023-10-08T13:11:42;19.90;61.20
9544;DHT22;30418;51.45933468;7.33152330;2023-10-08T13:14:12;19.90;61.30
9544;DHT22;30418;51.45933468;7.33152330;2023-10-08T13:16:41;20.00;61.40
9544;DHT22;30418;51.45933468;7.33152330;2023-10-08T13:19:13;20.00;61.50
9544;DHT22;30418;51.45933468;7.33152330;2023-10-08T13:21:42;20.00;61.60
9544;DHT22;30418;51.45933468;7.33152330;2023-10-08T13:24:11;20.00;61.70
9544;DHT22;30418;51.45933468;7.33152330;2023-10-08T13:26:40;20.00;61.60
9544;DHT22;30418;51.45933468;7.33152330;2023-10-08T13:29:09;20.10;61.60
9544;DHT22;30418;51.45933468;7.33152330;2023-10-08T13:31:38;20.10;61.60
9544;DHT22;30418;51.45933468;7.33152330;2023-10-08T13:34:06;20.10;61.60
9544;DHT22;30418;51.45933468;7.33152330;2023-10-08T13:36:39;20.10;61.60
9544;DHT22;30418;51.45933468;7.33152330;2023-10-08T13:39:09;20.10;61.60
9544;DHT22;30418;51.45933468;7.33152330;2023-10-08T13:41:45;20.10;61.60
9544;DHT22;30418;51.45933468;7.33152330;2023-10-08T13:44:15;20.20;61.70
9544;DHT22;30418;51.45933468;7.33152330;2023-10-08T13:46:45;20.20;61.70
9544;DHT22;30418;51.45933468;7.33152330;2023-10-08T13:49:17;20.20;61.70
9544;DHT22;30418;51.45933468;7.33152330;2023-10-08T13:51:47;20.20;61.60
9544;DHT22;30418;51.45933468;7.33152330;2023-10-08T13:54:24;20.30;61.70
9544;DHT22;30418;51.45933468;7.33152330;2023-10-08T13:56:56;20.20;61.60
9544;DHT22;30418;51.45933468;7.33152330;2023-10-08T13:59:26;20.30;61.70
9544;DHT22;30418;51.45933468;7.33152330;2023-10-08T14:01:59;20.30;61.80
9544;DHT22;30418;51.45933468;7.33152330;2023-10-08T14:04:29;20.30;61.80
9544;DHT22;30418;51.45933468;7.33152330;2023-10-08T14:07:03;20.30;61.90
9544;DHT22;30418;51.45933468;7.33152330;2023-10-08T14:09:32;20.30;61.90